Time;durP1;ratioP1;P1;durP2;ratioP2;P2;SDS_P1;SDS_P2;PMS_P1;PMS_P2;Temp;Humidity;BMP_temperature;BMP_pressure;BME280_temperature;BME280_humidity;BME280_pressure;Samples;Min_cycle;Max_cycle;Signal;HPM_P1;HPM_P2
2022/01/12 00:00:39;;;;;;;81.05;32.47;;;;;;;1.11;52.40;102959.16;5073918;28;20045;-72
2022/01/12 00:03:06;;;;;;;;;;;;;;;1.10;52.65;102954.78;5075961;28;20450;-72
2022/01/12 00:05:33;;;;;;;79.70;32.55;;;;;;;1.37;52.06;102961.03;5072848;28;19932;-72
2022/01/12 00:07:59;;;;;;;78.88;32.53;;;;;;;1.20;52.47;102966.81;5045652;28;20123;-72
2022/01/12 00:10:26;;;;;;;80.38;32.63;;;;;;;1.25;52.31;102972.84;5073403;28;20515;-72
2022/01/12 00:12:53;;;;;;;75.60;31.10;;;;;;;0.82;53.26;102966.13;5073524;28;20540;-72
2022/01/12 00:15:19;;;;;;;90.72;36.20;;;;;;;0.97;53.11;102964.81;5071745;28;20064;-72
2022/01/12 00:17:45;;;;;;;82.93;34.47;;;;;;;0.31;54.74;102958.66;5072650;28;20064;-72
2022/01/12 00:20:12;;;;;;;83.03;33.35;;;;;;;0.23;55.03;102961.50;5073736;28;20048;-72
2022/01/12 00:22:40;;;;;;;75.13;33.88;;;;;;;0.32;55.16;102959.53;5075168;28;20628;-72
2022/01/12 00:33:15;;;;;;;80.45;32.13;;;;;;;0.14;55.68;102945.03;5075338;28;20425;-72
2022/01/12 00:35:48;;;;;;;73.00;30.75;;;;;;;0.10;56.37;102938.94;5075288;28;20063;-72
2022/01/12 00:38:16;;;;;;;72.38;29.70;;;;;;;0.66;54.85;102938.38;5076171;28;20041;-72
2022/01/12 00:40:47;;;;;;;73.05;31.70;;;;;;;0.58;54.47;102938.59;5076510;28;20068;-72
2022/01/12 00:43:15;;;;;;;74.43;28.77;;;;;;;0.27;55.48;102935.88;5075346;28;20210;-72
2022/01/12 00:45:42;;;;;;;74.63;31.40;;;;;;;0.46;55.07;102942.41;5074103;28;20460;-72
2022/01/12 00:48:10;;;;;;;70.45;28.52;;;;;;;0.23;56.08;102935.09;5075865;28;20040;-72
2022/01/12 00:50:37;;;;;;;67.32;28.15;;;;;;;-0.29;57.48;102940.78;5074618;28;20040;-72
2022/01/12 00:53:04;;;;;;;78.68;30.27;;;;;;;0.15;56.26;102941.47;5075435;28;20044;-72
2022/01/12 00:55:32;;;;;;;78.90;31.52;;;;;;;0.46;55.57;102939.78;5075009;28;20079;-73
2022/01/12 00:57:59;;;;;;;76.47;30.08;;;;;;;0.09;56.49;102949.53;5074441;28;20072;-72
2022/01/12 01:00:26;;;;;;;79.13;31.65;;;;;;;0.35;55.50;102951.53;5074742;28;20135;-72
2022/01/12 01:02:54;;;;;;;85.72;32.72;;;;;;;1.00;54.27;102955.03;5074410;28;20051;-72
2022/01/12 01:05:22;;;;;;;79.70;32.95;;;;;;;1.31;53.40;102953.28;5075181;28;20170;-72
2022/01/12 01:07:50;;;;;;;79.97;33.00;;;;;;;1.16;53.80;102952.84;5076768;28;20044;-72
2022/01/12 01:10:29;;;;;;;75.47;30.63;;;;;;;1.34;53.68;102953.22;5075711;28;20049;-72
2022/01/12 01:12:56;;;;;;;82.65;31.65;;;;;;;0.88;55.01;102952.72;5076134;28;20468;-72
2022/01/12 01:15:40;;;;;;;80.28;33.30;;;;;;;0.22;56.55;102953.59;5076384;28;20054;-72
2022/01/12 01:26:22;;;;;;;94.60;32.70;;;;;;;0.83;55.48;102944.06;5075134;28;20072;-72
2022/01/12 01:28:48;;;;;;;89.35;31.42;;;;;;;0.95;54.69;102943.75;5074870;28;20064;-72
2022/01/12 01:31:14;;;;;;;91.07;33.35;;;;;;;1.38;53.81;102952.19;5075834;28;20124;-73
2022/01/12 01:33:41;;;;;;;87.40;32.22;;;;;;;0.93;54.68;102950.84;5075415;28;20067;-72
2022/01/12 01:36:07;;;;;;;92.55;32.72;;;;;;;0.88;54.85;102942.16;5075441;28;20047;-72
2022/01/12 01:38:35;;;;;;;93.05;34.13;;;;;;;0.73;55.33;102942.59;5070073;28;20123;-72
2022/01/12 01:41:01;;;;;;;85.72;32.72;;;;;;;0.75;55.23;102943.44;5075069;28;20109;-72
2022/01/12 01:54:18;;;;;;;81.22;30.55;;;;;;;0.75;55.23;102954.00;5075603;28;20119;-72
2022/01/12 01:56:44;;;;;;;87.93;30.83;;;;;;;0.12;56.90;102941.53;5076223;28;20131;-72
2022/01/12 01:59:10;;;;;;;87.03;29.70;;;;;;;0.92;55.37;102946.47;5075641;28;20060;-72
2022/01/12 02:01:37;;;;;;;84.00;32.55;;;;;;;0.97;55.48;102955.13;5057602;28;20128;-72
2022/01/12 02:04:05;;;;;;;83.10;30.48;;;;;;;0.93;55.47;102948.19;5074780;28;20055;-72
2022/01/12 02:07:21;;;;;;;80.90;30.75;;;;;;;1.05;54.47;102946.97;5075338;28;20519;-72
2022/01/12 02:09:48;;;;;;;80.28;28.33;;;;;;;0.71;56.10;102949.69;5071330;28;20046;-72
2022/01/12 02:12:24;;;;;;;91.65;31.83;;;;;;;1.25;54.22;102949.91;5075254;28;20123;-72
2022/01/12 02:14:51;;;;;;;91.57;31.33;;;;;;;0.33;56.65;102951.59;5073958;28;20076;-72
2022/01/12 02:17:22;;;;;;;91.38;31.70;;;;;;;0.43;56.89;102939.84;5075713;28;20068;-72
2022/01/12 02:20:14;;;;;;;89.85;31.63;;;;;;;0.38;56.64;102941.75;5093608;28;20468;-72
2022/01/12 02:36:31;;;;;;;97.85;32.95;;;;;;;0.58;57.01;102940.38;5093227;28;20063;-72
2022/01/12 02:41:42;;;;;;;100.32;32.25;;;;;;;0.74;56.40;102937.25;5091326;28;20128;-72
2022/01/12 02:54:47;;;;;;;116.28;34.65;;;;;;;0.22;57.77;102932.47;5092849;28;20066;-72
2022/01/12 02:57:15;;;;;;;107.63;35.67;;;;;;;0.61;57.03;102930.59;5094211;28;20043;-72
2022/01/12 03:00:01;;;;;;;103.38;33.95;;;;;;;0.67;56.61;102934.81;5091300;28;20040;-72
2022/01/12 03:02:32;;;;;;;100.28;32.33;;;;;;;1.31;54.80;102927.72;5092274;28;20067;-71
2022/01/12 03:07:44;;;;;;;107.97;36.75;;;;;;;0.60;57.10;102933.25;5091416;28;20147;-72
2022/01/12 03:10:12;;;;;;;104.97;33.67;;;;;;;0.59;57.42;102936.81;5092139;28;20055;-72
2022/01/12 03:12:40;;;;;;;107.75;33.30;;;;;;;0.34;57.73;102931.31;5092755;28;20138;-73
2022/01/12 03:15:06;;;;;;;96.63;31.98;;;;;;;0.28;58.46;102920.00;5092225;28;20040;-72
2022/01/12 03:17:34;;;;;;;101.72;34.42;;;;;;;0.17;58.31;102923.81;5091450;28;20055;-72
2022/01/12 03:20:02;;;;;;;101.32;33.97;;;;;;;0.78;57.09;102927.50;5091965;28;20044;-71
2022/01/12 03:22:28;;;;;;;94.80;31.35;;;;;;;1.09;55.82;102926.59;5092062;28;20060;-72
2022/01/12 03:24:55;;;;;;;106.30;36.60;;;;;;;0.64;56.82;102929.63;5092731;28;20047;-72
2022/01/12 03:27:24;;;;;;;107.97;34.38;;;;;;;0.51;57.29;102918.53;5092378;28;20134;-72
2022/01/12 03:29:55;;;;;;;93.60;33.05;;;;;;;0.72;57.24;102927.66;5090693;28;20048;-72
2022/01/12 03:32:31;;;;;;;107.43;35.28;;;;;;;0.34;57.55;102934.81;5091356;28;20124;-72
2022/01/12 03:35:07;;;;;;;93.60;31.90;;;;;;;0.79;56.75;102933.63;5092964;28;20075;-72
2022/01/12 03:37:54;;;;;;;96.28;31.70;;;;;;;-0.06;59.08;102922.63;5093169;28;20071;-72
2022/01/12 03:40:21;;;;;;;92.80;32.30;;;;;;;0.16;58.57;102932.66;5093419;28;20118;-72
2022/01/12 03:42:48;;;;;;;100.95;32.45;;;;;;;0.51;57.97;102929.97;5093526;28;20063;-72
2022/01/12 03:45:15;;;;;;;93.68;30.63;;;;;;;0.62;57.50;102924.41;5093877;28;20119;-72
2022/01/12 03:47:41;;;;;;;103.78;32.55;;;;;;;1.24;55.99;102928.81;5093738;28;20072;-72
2022/01/12 03:50:08;;;;;;;110.15;37.72;;;;;;;1.42;55.07;102917.66;5093331;28;20101;-72
2022/01/12 03:52:34;;;;;;;100.72;33.88;;;;;;;0.56;57.14;102924.56;5093051;28;20535;-72
2022/01/12 03:55:00;;;;;;;106.28;34.17;;;;;;;1.17;56.01;102927.25;5093983;28;20134;-71
2022/01/12 03:57:27;;;;;;;102.18;33.50;;;;;;;1.56;54.55;102927.81;5096183;28;20078;-72
2022/01/12 03:59:54;;;;;;;105.32;35.35;;;;;;;1.54;54.84;102926.13;5097664;28;20115;-72
2022/01/12 04:02:20;;;;;;;99.32;34.58;;;;;;;1.36;55.50;102930.19;5097767;28;20066;-72
2022/01/12 04:05:09;;;;;;;93.47;33.08;;;;;;;1.35;55.29;102929.34;5098492;28;20047;-72
2022/01/12 04:10:21;;;;;;;98.55;32.45;;;;;;;1.12;55.41;102926.50;5098976;28;20100;-72
2022/01/12 04:12:52;;;;;;;96.93;31.77;;;;;;;0.91;56.50;102920.94;5096010;28;20044;-72
2022/01/12 04:15:18;;;;;;;98.47;33.05;;;;;;;0.81;56.73;102922.09;5095070;28;20046;-72
2022/01/12 04:17:45;;;;;;;94.80;32.15;;;;;;;1.18;55.76;102927.19;5095711;28;20373;-72
2022/01/12 04:20:11;;;;;;;86.30;31.35;;;;;;;0.21;58.36;102931.63;5094525;28;20454;-72
2022/01/12 04:25:25;;;;;;;89.25;31.75;;;;;;;0.92;56.33;102921.81;5074456;28;20076;-72
2022/01/12 04:27:52;;;;;;;85.07;30.70;;;;;;;0.20;58.79;102918.47;5056399;28;20373;-72
2022/01/12 04:30:18;;;;;;;79.65;28.80;;;;;;;0.07;59.08;102927.59;5055482;28;20064;-72
2022/01/12 04:32:45;;;;;;;87.85;29.52;;;;;;;1.09;56.08;102916.03;5062812;28;20078;-72
2022/01/12 04:35:13;;;;;;;82.82;28.52;;;;;;;0.52;57.92;102918.50;5075723;28;20127;-72
2022/01/12 04:37:40;;;;;;;85.78;31.65;;;;;;;0.84;57.04;102923.78;5058606;28;20556;-72
2022/01/12 04:40:07;;;;;;;94.68;29.70;;;;;;;0.76;57.13;102942.50;5076044;28;20079;-72
2022/01/12 04:42:35;;;;;;;87.60;30.35;;;;;;;1.55;55.05;102927.88;5075786;28;20127;-72
2022/01/12 04:45:19;;;;;;;93.28;30.55;;;;;;;1.60;54.76;102932.09;5075199;28;20132;-72
2022/01/12 04:50:25;;;;;;;98.97;32.97;;;;;;;1.57;54.99;102918.09;5075490;28;20135;-72
2022/01/12 04:52:51;;;;;;;87.13;31.13;;;;;;;1.75;54.26;102921.94;5075603;28;20063;-72
2022/01/12 04:55:18;;;;;;;100.20;33.53;;;;;;;1.25;55.44;102926.09;5073033;28;20127;-72
2022/01/12 04:57:45;;;;;;;101.35;34.05;;;;;;;1.62;54.55;102922.34;5074496;28;20108;-72
2022/01/12 05:00:15;;;;;;;102.07;31.88;;;;;;;1.39;55.44;102916.88;5074078;28;20353;-72
2022/01/12 05:08:34;;;;;;;109.38;33.65;;;;;;;0.96;56.71;102945.47;5074310;28;20447;-72
2022/01/12 05:13:52;;;;;;;96.05;31.77;;;;;;;1.03;56.50;102943.53;5075292;28;20123;-72
2022/01/12 05:16:20;;;;;;;88.18;29.38;;;;;;;0.62;57.76;102940.25;5044299;28;20060;-72
2022/01/12 05:18:49;;;;;;;82.93;29.33;;;;;;;1.09;56.92;102932.78;5074883;28;20067;-72
2022/01/12 05:21:17;;;;;;;78.82;28.65;;;;;;;1.27;55.59;102941.94;5074668;28;20124;-72
2022/01/12 05:23:44;;;;;;;78.55;27.42;;;;;;;0.83;57.35;102943.22;5075159;28;20094;-72
2022/01/12 05:26:10;;;;;;;86.10;29.45;;;;;;;1.12;56.83;102930.00;5074462;28;20128;-72
2022/01/12 05:28:38;;;;;;;80.38;27.60;;;;;;;1.08;56.42;102932.81;5073644;28;20044;-72
2022/01/12 05:31:06;;;;;;;77.78;27.30;;;;;;;1.08;56.85;102936.31;5074417;28;20079;-71
2022/01/12 05:33:33;;;;;;;76.28;27.58;;;;;;;1.77;54.78;102934.22;5073510;28;20045;-72
2022/01/12 05:36:03;;;;;;;76.90;25.85;;;;;;;1.34;55.52;102938.19;5067704;28;20440;-72
2022/01/12 05:38:29;;;;;;;84.90;29.80;;;;;;;1.12;55.97;102937.94;5073013;28;20512;-72
2022/01/12 05:41:00;;;;;;;84.97;29.80;;;;;;;1.18;56.22;102936.91;5075769;28;20123;-72
2022/01/12 05:43:29;;;;;;;77.03;27.02;;;;;;;1.85;55.09;102929.53;5073713;28;20070;-71
2022/01/12 05:46:09;;;;;;;79.03;27.25;;;;;;;1.93;54.13;102922.25;5072468;28;20097;-71
2022/01/12 05:51:23;;;;;;;84.28;29.30;;;;;;;1.18;55.88;102913.97;5074091;28;20059;-71
2022/01/12 05:53:50;;;;;;;75.53;27.63;;;;;;;1.77;54.57;102894.50;5074981;28;20120;-72
2022/01/12 05:56:17;;;;;;;88.90;29.10;;;;;;;0.75;57.34;102898.50;5074378;28;20075;-72
2022/01/12 05:58:44;;;;;;;79.20;27.67;;;;;;;0.46;58.11;102896.66;5073995;28;20080;-71
2022/01/12 06:01:10;;;;;;;94.97;31.08;;;;;;;0.85;57.45;102893.81;5074035;28;20075;-71
2022/01/12 06:03:37;;;;;;;86.82;29.23;;;;;;;1.13;56.41;102888.59;5074280;28;20045;-71
2022/01/12 06:06:03;;;;;;;87.00;28.90;;;;;;;1.14;56.04;102900.91;5074117;28;20500;-70
2022/01/12 06:08:31;;;;;;;84.80;28.52;;;;;;;0.70;57.45;102910.97;5074687;28;20048;-71
2022/01/12 06:10:58;;;;;;;88.32;29.65;;;;;;;0.77;58.22;102915.16;5075003;28;20064;-70
2022/01/12 06:13:24;;;;;;;99.53;30.30;;;;;;;0.65;58.39;102902.31;5075990;28;20124;-71
2022/01/12 06:15:50;;;;;;;95.80;32.60;;;;;;;0.80;57.92;102893.94;5072016;28;20059;-71
2022/01/12 06:18:17;;;;;;;91.88;30.90;;;;;;;0.88;58.19;102886.66;5075092;28;20044;-71
2022/01/12 06:20:44;;;;;;;99.10;31.88;;;;;;;1.42;56.71;102898.28;5074225;28;20068;-71
2022/01/12 06:23:10;;;;;;;93.95;31.17;;;;;;;0.97;56.91;102901.41;5074517;28;20082;-71
2022/01/12 06:25:36;;;;;;;104.53;32.60;;;;;;;1.39;56.67;102899.25;5066967;28;20135;-71
2022/01/12 06:28:36;;;;;;;100.22;32.25;;;;;;;1.27;56.39;102904.91;5074060;28;20064;-71
2022/01/12 06:31:10;;;;;;;97.90;30.38;;;;;;;1.15;56.76;102900.84;5072577;28;20047;-71
2022/01/12 06:33:45;;;;;;;92.95;32.60;;;;;;;1.83;54.92;102896.09;5059207;28;20041;-71
2022/01/12 06:36:13;;;;;;;93.70;30.90;;;;;;;1.98;54.86;102897.41;5054836;28;20073;-71
2022/01/12 06:38:40;;;;;;;97.40;32.25;;;;;;;1.24;56.53;102910.28;5053789;28;20069;-71
2022/01/12 06:41:07;;;;;;;97.40;31.75;;;;;;;1.53;56.02;102917.31;5051415;28;20439;-71
2022/01/12 06:43:35;;;;;;;105.53;31.98;;;;;;;1.36;56.01;102923.13;5050478;28;20068;-73
2022/01/12 06:46:03;;;;;;;98.18;32.17;;;;;;;0.91;57.52;102926.22;5052042;28;20188;-72
2022/01/12 06:48:31;;;;;;;94.30;30.65;;;;;;;1.20;57.00;102920.09;5052436;28;20057;-73
2022/01/12 06:50:57;;;;;;;100.28;32.00;;;;;;;1.20;56.77;102908.66;5051629;28;20504;-72
2022/01/12 06:53:24;;;;;;;88.80;29.25;;;;;;;1.36;56.32;102920.50;5054405;28;20056;-72
2022/01/12 06:55:50;;;;;;;93.65;31.00;;;;;;;1.54;55.85;102916.41;5054164;28;20100;-72
2022/01/12 06:58:17;;;;;;;92.55;31.40;;;;;;;1.40;55.50;102910.69;5053217;28;20477;-72
2022/01/12 07:00:43;;;;;;;94.38;32.85;;;;;;;1.45;55.90;102917.56;5051391;28;20144;-73
2022/01/12 07:03:10;;;;;;;103.57;33.13;;;;;;;1.35;55.99;102916.13;5053848;28;20095;-72
2022/01/12 07:05:37;;;;;;;98.50;32.78;;;;;;;1.82;55.72;102927.00;5053884;28;20052;-72
2022/01/12 07:08:04;;;;;;;107.07;33.60;;;;;;;1.53;55.77;102930.56;5053718;28;20461;-72
2022/01/12 07:10:30;;;;;;;105.28;31.73;;;;;;;1.61;55.62;102931.19;5052696;28;20585;-72
2022/01/12 07:12:57;;;;;;;93.43;33.65;;;;;;;1.44;55.97;102930.84;5053375;28;20051;-71
2022/01/12 07:15:24;;;;;;;110.28;33.60;;;;;;;1.62;56.48;102932.06;5054134;28;20098;-71
2022/01/12 07:17:50;;;;;;;102.30;33.15;;;;;;;1.61;56.06;102936.50;5052939;28;20485;-71
2022/01/12 07:20:17;;;;;;;102.78;32.88;;;;;;;1.10;57.48;102928.34;5053853;28;20216;-69
2022/01/12 07:22:43;;;;;;;104.60;33.15;;;;;;;1.35;56.70;102937.28;5053234;28;20041;-71
2022/01/12 07:25:10;;;;;;;103.47;33.95;;;;;;;1.33;56.35;102932.94;5053331;28;20068;-71
2022/01/12 07:27:39;;;;;;;108.63;37.05;;;;;;;1.88;55.29;102940.03;5053854;28;20439;-72
2022/01/12 07:30:06;;;;;;;94.80;30.70;;;;;;;1.66;55.73;102941.63;5052766;28;20049;-71
2022/01/12 07:32:32;;;;;;;110.60;34.17;;;;;;;1.72;55.41;102934.38;5056983;28;20051;-71
2022/01/12 07:34:59;;;;;;;109.43;33.65;;;;;;;2.03;55.09;102941.38;5073359;28;20075;-72
2022/01/12 07:37:25;;;;;;;103.72;32.00;;;;;;;1.45;56.23;102937.88;5073656;28;20536;-72
2022/01/12 07:39:52;;;;;;;102.28;32.95;;;;;;;1.73;55.58;102924.66;5072857;28;20127;-72
2022/01/12 07:42:19;;;;;;;109.60;34.30;;;;;;;1.30;57.03;102936.56;5072895;28;20090;-73
2022/01/12 07:44:45;;;;;;;116.05;35.80;;;;;;;1.72;55.72;102938.81;5071538;28;20162;-72
2022/01/12 07:47:12;;;;;;;122.55;35.08;;;;;;;1.88;55.29;102947.97;5072709;28;20127;-72
2022/01/12 07:49:38;;;;;;;107.63;34.28;;;;;;;1.72;56.05;102938.81;5071895;28;20127;-71
2022/01/12 07:52:05;;;;;;;120.50;35.72;;;;;;;1.60;56.10;102949.75;5071775;28;20481;-71
2022/01/12 07:54:32;;;;;;;114.75;35.90;;;;;;;1.67;56.57;102951.28;5063133;28;20051;-72
2022/01/12 07:56:59;;;;;;;115.95;34.90;;;;;;;1.75;55.36;102954.59;5072961;28;20094;-72
2022/01/12 07:59:25;;;;;;;116.78;35.58;;;;;;;1.95;55.54;102953.97;5073717;28;20131;-73
2022/01/12 08:01:51;;;;;;;117.55;36.88;;;;;;;1.76;56.72;102960.75;5072900;28;20124;-73
2022/01/12 08:04:18;;;;;;;115.15;35.42;;;;;;;1.79;56.20;102956.22;5072280;28;20045;-71
2022/01/12 08:06:48;;;;;;;122.32;36.53;;;;;;;1.95;55.44;102948.66;5073203;28;20400;-71
2022/01/12 08:09:15;;;;;;;124.93;35.85;;;;;;;1.73;56.26;102957.25;5076972;28;20041;-73
2022/01/12 08:11:41;;;;;;;117.47;35.72;;;;;;;1.70;56.26;102961.78;5062177;28;20124;-74
2022/01/12 08:14:08;;;;;;;119.30;36.45;;;;;;;1.58;57.21;102975.41;5032778;28;20112;-73
2022/01/12 08:16:34;;;;;;;111.63;34.20;;;;;;;1.76;56.35;102977.47;5036741;28;20105;-72
2022/01/12 08:19:01;;;;;;;120.88;35.97;;;;;;;1.88;55.98;102982.38;5033309;28;20484;-72
2022/01/12 08:21:29;;;;;;;114.55;36.70;;;;;;;2.12;55.52;102980.75;5036638;28;20109;-72
2022/01/12 08:23:56;;;;;;;121.05;37.03;;;;;;;1.90;56.04;102969.97;5063025;28;20102;-72
2022/01/12 08:26:30;;;;;;;115.18;35.33;;;;;;;2.48;54.88;102950.44;5072199;28;20040;-72
2022/01/12 08:28:56;;;;;;;107.72;35.20;;;;;;;2.49;54.50;102962.78;5071594;28;20060;-72
2022/01/12 08:31:23;;;;;;;116.90;38.08;;;;;;;3.06;53.20;102969.56;5074025;28;20045;-73
2022/01/12 08:33:50;;;;;;;117.15;36.78;;;;;;;3.27;52.70;102968.75;5072585;28;20045;-72
2022/01/12 08:36:16;;;;;;;119.13;35.35;;;;;;;3.56;51.47;102962.38;5071298;28;20060;-72
2022/01/12 08:38:43;;;;;;;111.80;35.65;;;;;;;3.01;53.16;102966.22;5071531;28;20094;-73
2022/01/12 08:41:09;;;;;;;111.80;36.80;;;;;;;2.93;52.93;102978.88;5071962;28;20050;-75
2022/01/12 08:43:36;;;;;;;113.00;37.50;;;;;;;2.91;52.97;102979.81;5066859;28;20066;-74
2022/01/12 08:46:02;;;;;;;117.45;37.90;;;;;;;3.45;52.05;102984.91;5076045;28;20074;-74
2022/01/12 08:48:29;;;;;;;112.18;39.20;;;;;;;3.40;52.23;102982.44;5075444;28;20131;-74
2022/01/12 08:50:55;;;;;;;110.05;37.25;;;;;;;3.51;51.74;102987.34;5075561;28;20509;-74
2022/01/12 08:53:22;;;;;;;108.22;36.30;;;;;;;2.97;53.93;102983.19;5075655;28;20048;-73
2022/01/12 08:55:49;;;;;;;103.72;35.63;;;;;;;3.27;52.22;102982.03;5075031;28;20151;-73
2022/01/12 08:58:15;;;;;;;108.35;35.22;;;;;;;3.46;52.20;102984.00;5075712;28;20123;-74
2022/01/12 09:00:42;;;;;;;107.60;36.17;;;;;;;3.28;52.76;102981.13;5075987;28;20048;-74
2022/01/12 09:03:08;;;;;;;104.78;34.20;;;;;;;3.86;50.94;102978.88;5076729;28;20393;-74
2022/01/12 09:05:35;;;;;;;97.28;35.28;;;;;;;3.59;51.93;102979.97;5094467;28;20048;-74
2022/01/12 09:08:02;;;;;;;102.95;35.42;;;;;;;3.43;52.52;102981.47;5077366;28;20059;-74
2022/01/12 09:10:28;;;;;;;95.90;32.95;;;;;;;3.88;51.09;102985.91;5077552;28;20052;-75
2022/01/12 09:12:55;;;;;;;99.22;33.55;;;;;;;4.45;49.90;102984.47;5094299;28;20063;-75
2022/01/12 09:15:25;;;;;;;92.95;31.88;;;;;;;4.44;49.56;102974.78;5095361;28;20127;-74
2022/01/12 09:17:53;;;;;;;86.10;30.88;;;;;;;4.66;49.54;102980.91;5095017;28;20048;-75
2022/01/12 09:20:21;;;;;;;103.72;34.67;;;;;;;4.75;49.20;102991.13;5095251;28;20127;-74
2022/01/12 09:22:48;;;;;;;101.97;35.50;;;;;;;4.73;49.31;102987.69;5095051;28;20048;-74
2022/01/12 09:25:14;;;;;;;88.97;32.17;;;;;;;4.53;49.95;102987.69;5096189;28;20044;-75
2022/01/12 09:27:41;;;;;;;92.28;31.67;;;;;;;4.55;49.70;102988.47;5063212;28;20045;-74
2022/01/12 09:30:10;;;;;;;87.70;30.70;;;;;;;4.86;49.51;102976.50;5056342;28;20083;-74
2022/01/12 09:32:36;;;;;;;90.88;31.95;;;;;;;4.66;49.98;102964.97;5060311;28;20123;-74
2022/01/12 09:35:04;;;;;;;89.32;31.92;;;;;;;5.00;49.59;102976.75;5073618;28;20496;-74
2022/01/12 09:37:30;;;;;;;95.82;31.58;;;;;;;4.58;50.57;102983.03;5074371;28;20068;-74
2022/01/12 09:39:57;;;;;;;85.05;31.55;;;;;;;4.32;51.21;102970.81;5074370;28;20050;-74
2022/01/12 09:42:23;;;;;;;90.60;33.17;;;;;;;4.66;50.73;102967.63;5072246;28;20052;-74
2022/01/12 09:44:50;;;;;;;92.75;32.55;;;;;;;4.22;51.96;102970.34;5071720;28;20068;-74
2022/01/12 09:47:17;;;;;;;93.38;34.50;;;;;;;4.06;52.74;102963.91;5071809;28;20048;-73
2022/01/12 09:49:45;;;;;;;94.20;33.35;;;;;;;4.31;51.84;102974.38;5073714;28;20123;-75
2022/01/12 09:52:13;;;;;;;90.82;35.75;;;;;;;4.42;51.92;102964.22;5074047;28;20464;-74
2022/01/12 09:54:40;;;;;;;99.60;36.13;;;;;;;4.37;52.62;102965.31;5073111;28;20131;-74
2022/01/12 09:57:07;;;;;;;88.30;34.30;;;;;;;4.66;51.43;102962.31;5074692;28;20060;-73
2022/01/12 09:59:35;;;;;;;85.00;31.77;;;;;;;4.89;51.09;102955.09;5073646;28;20072;-75
2022/01/12 10:02:02;;;;;;;91.38;31.20;;;;;;;5.00;50.58;102952.81;5073523;28;20052;-75
2022/01/12 10:04:31;;;;;;;82.88;29.77;;;;;;;5.24;50.32;102946.34;5074109;28;20479;-75
2022/01/12 10:07:03;;;;;;;96.50;31.25;;;;;;;5.23;50.25;102944.66;5072741;28;20127;-75
2022/01/12 10:09:44;;;;;;;86.00;30.70;;;;;;;4.80;51.58;102951.06;5074432;28;20131;-75
2022/01/12 10:12:17;;;;;;;92.80;30.75;;;;;;;5.00;51.35;102953.66;5072678;28;20389;-75
2022/01/12 10:14:47;;;;;;;77.35;29.42;;;;;;;5.25;51.36;102945.44;5068171;28;20441;-75
2022/01/12 10:17:14;;;;;;;76.35;29.52;;;;;;;5.07;51.42;102943.63;5071596;28;20484;-75
2022/01/12 10:19:41;;;;;;;81.45;30.33;;;;;;;5.46;50.88;102942.72;5071673;28;20067;-75
2022/01/12 10:22:11;;;;;;;83.00;30.20;;;;;;;5.52;50.63;102934.41;5072628;28;20132;-75
2022/01/12 10:24:39;;;;;;;74.50;28.77;;;;;;;5.66;50.06;102939.09;5073262;28;20211;-75
2022/01/12 10:27:14;;;;;;;82.18;29.67;;;;;;;5.70;50.05;102930.03;5072760;28;20064;-75
2022/01/12 10:29:41;;;;;;;78.68;28.80;;;;;;;5.61;50.65;102927.81;5072736;28;20071;-74
2022/01/12 10:32:08;;;;;;;83.10;28.02;;;;;;;5.64;50.25;102933.00;5072625;28;20071;-74
2022/01/12 10:34:41;;;;;;;78.63;28.65;;;;;;;5.69;50.47;102921.16;5071313;28;20048;-75
2022/01/12 10:37:10;;;;;;;72.35;28.75;;;;;;;5.84;50.13;102929.38;5073093;28;20076;-75
2022/01/12 10:39:48;;;;;;;75.15;26.58;;;;;;;5.83;50.39;102930.28;5074346;28;20135;-74
2022/01/12 10:42:26;;;;;;;62.97;26.40;;;;;;;5.64;50.86;102930.31;5075565;28;20510;-75
2022/01/12 10:44:56;;;;;;;67.53;25.88;;;;;;;6.08;49.52;102922.81;5069731;28;20049;-75
2022/01/12 10:47:27;;;;;;;71.35;27.98;;;;;;;6.08;49.44;102924.59;5074346;28;20057;-74
2022/01/12 10:49:53;;;;;;;69.10;26.73;;;;;;;6.13;49.23;102926.09;5074749;28;20119;-75
2022/01/12 10:52:22;;;;;;;70.38;26.65;;;;;;;5.42;51.01;102919.81;5075130;28;20124;-74
2022/01/12 10:54:50;;;;;;;61.17;25.60;;;;;;;5.81;50.34;102916.19;5074287;28;20044;-75
2022/01/12 10:57:27;;;;;;;62.13;24.90;;;;;;;6.00;49.86;102924.97;5072165;28;20048;-75
2022/01/12 11:00:18;;;;;;;60.20;25.63;;;;;;;6.06;49.54;102924.69;5059924;28;20502;-74
2022/01/12 11:02:59;;;;;;;61.40;25.30;;;;;;;6.04;49.74;102923.88;5072949;28;20048;-74
2022/01/12 11:05:29;;;;;;;42.22;17.85;;;;;;;6.24;49.22;102921.06;5071102;28;20558;-75
2022/01/12 11:07:56;;;;;;;67.20;25.27;;;;;;;6.18;49.43;102928.53;5072964;28;20093;-73
2022/01/12 11:10:23;;;;;;;49.70;22.40;;;;;;;6.10;50.09;102931.56;5073148;28;20052;-75
2022/01/12 11:12:51;;;;;;;55.45;22.67;;;;;;;5.95;50.60;102937.69;5071448;28;20048;-74
2022/01/12 11:15:20;;;;;;;66.63;24.35;;;;;;;5.88;50.67;102930.94;5071970;28;20064;-75
2022/01/12 11:17:49;;;;;;;70.90;24.33;;;;;;;6.20;49.66;102937.31;5070384;28;20122;-75
2022/01/12 11:20:26;;;;;;;62.97;23.15;;;;;;;6.21;49.43;102933.69;5070799;28;20048;-75
2022/01/12 11:23:08;;;;;;;65.55;23.95;;;;;;;6.09;49.94;102918.34;5071469;28;20127;-74
2022/01/12 11:25:42;;;;;;;;;;;;;;;5.50;51.45;102923.00;5068788;28;20048;-74
2022/01/12 11:28:23;;;;;;;56.63;22.83;;;;;;;6.06;49.69;102924.69;5071210;28;20337;-75
2022/01/12 11:30:50;;;;;;;;;;;;;;;5.95;50.17;102911.03;5051956;28;20080;-74
2022/01/12 11:33:22;;;;;;;61.40;23.40;;;;;;;5.98;50.20;102924.22;5059939;28;19920;-75
2022/01/12 11:35:51;;;;;;;56.13;23.42;;;;;;;5.98;50.05;102921.53;5071578;28;20056;-75
2022/01/12 11:38:31;;;;;;;59.28;24.17;;;;;;;5.89;50.39;102925.50;5071575;28;20428;-74
2022/01/12 11:41:22;;;;;;;65.15;25.88;;;;;;;6.01;50.10;102929.41;5071401;28;20060;-73
2022/01/12 11:44:05;;;;;;;63.88;25.00;;;;;;;5.98;50.66;102924.22;5054342;28;20050;-73
2022/01/12 11:46:49;;;;;;;59.35;25.58;;;;;;;5.97;50.42;102922.47;5063354;28;20052;-72
2022/01/12 11:49:35;;;;;;;67.20;26.42;;;;;;;5.17;52.35;102928.94;5054400;28;20045;-73
2022/01/12 11:52:18;;;;;;;67.25;26.38;;;;;;;5.50;52.15;102921.19;5038085;28;20067;-73
2022/01/12 11:54:47;;;;;;;66.53;25.63;;;;;;;5.84;51.32;102922.22;5033919;28;20069;-73
2022/01/12 11:57:19;;;;;;;70.95;28.02;;;;;;;5.96;50.78;102923.41;5034235;28;20111;-73
2022/01/12 11:59:55;;;;;;;67.55;26.88;;;;;;;5.94;50.78;102931.50;5049178;28;20445;-73
2022/01/12 12:02:46;;;;;;;77.07;28.27;;;;;;;5.99;50.98;102941.91;5046945;28;20395;-73
2022/01/12 12:05:14;;;;;;;69.53;28.73;;;;;;;5.94;51.14;102928.84;5073877;28;20080;-73
2022/01/12 12:07:45;;;;;;;74.65;28.20;;;;;;;5.90;51.31;102934.38;5057825;28;20127;-73
2022/01/12 12:10:14;;;;;;;72.43;28.87;;;;;;;5.78;52.00;102933.19;5057005;28;20072;-73
2022/01/12 12:12:41;;;;;;;77.93;29.13;;;;;;;5.28;53.00;102932.00;5070286;28;20053;-73
2022/01/12 12:15:09;;;;;;;77.28;30.98;;;;;;;5.53;53.09;102926.38;5052514;28;20569;-73
2022/01/12 12:17:38;;;;;;;77.85;31.40;;;;;;;5.70;52.25;102916.72;5053293;28;20048;-73
2022/01/12 12:20:07;;;;;;;83.50;30.77;;;;;;;5.95;51.67;102929.69;5060448;28;20548;-73
2022/01/12 12:22:38;;;;;;;82.60;31.55;;;;;;;5.69;52.75;102937.13;5073224;28;20045;-73
2022/01/12 12:25:09;;;;;;;86.97;31.65;;;;;;;5.94;52.05;102925.28;5076788;28;20059;-73
2022/01/12 12:27:39;;;;;;;83.47;34.08;;;;;;;6.01;51.64;102937.38;5076524;28;20045;-73
2022/01/12 12:30:12;;;;;;;93.72;34.28;;;;;;;6.04;51.76;102941.69;5075160;28;20064;-73
2022/01/12 12:32:55;;;;;;;87.97;33.58;;;;;;;5.80;52.57;102933.09;5074863;28;20052;-73
2022/01/12 12:35:26;;;;;;;91.40;34.00;;;;;;;5.94;52.36;102936.81;5066793;28;20090;-73
2022/01/12 12:37:59;;;;;;;91.57;34.10;;;;;;;5.92;52.67;102940.50;5058611;28;20119;-73
2022/01/12 12:40:29;;;;;;;89.55;34.33;;;;;;;5.93;52.70;102940.41;5074693;28;20082;-74
2022/01/12 12:43:21;;;;;;;71.07;25.88;;;;;;;5.85;52.95;102942.59;5071748;28;20061;-73